createdAt,value
2019-01-05T00:01:45.567Z,102721.19
2019-01-05T00:04:15.456Z,102728.05
2019-01-05T00:07:01.635Z,102728.91
2019-01-05T00:09:47.827Z,102728.22
2019-01-05T00:12:17.738Z,102729.56
2019-01-05T00:14:53.507Z,102726.06
2019-01-05T00:17:35.320Z,102725.52
2019-01-05T00:20:18.135Z,102722.94
2019-01-05T00:22:50.623Z,102724.80
2019-01-05T00:25:26.642Z,102724.10
2019-01-05T00:28:02.746Z,102720.05
2019-01-05T00:30:35.339Z,102716.93
2019-01-05T00:33:07.949Z,102716.12
2019-01-05T00:35:56.209Z,102712.13
2019-01-05T00:38:35.174Z,102710.48
2019-01-05T00:41:05.149Z,102703.85
2019-01-05T00:43:51.053Z,102702.55
2019-01-05T00:46:26.786Z,102701.20
2019-01-05T00:49:05.527Z,102703.95
2019-01-05T00:51:38.041Z,102692.14
2019-01-05T00:54:08.706Z,102690.84
2019-01-05T00:56:55.265Z,102683.53
2019-01-05T00:59:40.996Z,102685.74
2019-01-05T01:02:11.031Z,102693.16
2019-01-05T01:04:57.393Z,102692.30
2019-01-05T01:07:43.760Z,102686.90
2019-01-05T01:10:25.561Z,102692.20
2019-01-05T01:13:11.649Z,102681.70
2019-01-05T01:15:57.132Z,102681.41
2019-01-05T01:18:43.639Z,102680.45
2019-01-05T01:21:22.436Z,102668.36
2019-01-05T01:23:52.396Z,102664.27
2019-01-05T01:26:25.022Z,102664.78
2019-01-05T01:29:11.540Z,102666.72
2019-01-05T01:31:41.497Z,102659.53
2019-01-05T01:34:27.692Z,102663.13
2019-01-05T01:36:57.588Z,102650.17
2019-01-05T01:39:43.524Z,102640.44
2019-01-05T01:42:22.550Z,102644.19
2019-01-05T01:44:52.530Z,102648.58
2019-01-05T01:47:31.773Z,102640.02
2019-01-05T01:50:08.458Z,102633.98
2019-01-05T01:52:54.682Z,102633.48
2019-01-05T01:55:30.698Z,102630.88
2019-01-05T01:58:16.735Z,102623.88
2019-01-05T02:00:46.762Z,102628.18
2019-01-05T02:03:16.734Z,102621.27
2019-01-05T02:05:53.960Z,102626.37
2019-01-05T02:08:27.040Z,102628.86
2019-01-05T02:11:11.939Z,102616.93
2019-01-05T02:13:58.922Z,102614.56
2019-01-05T02:16:44.896Z,102614.56
2019-01-05T02:19:33.157Z,102614.27
2019-01-05T02:22:41.234Z,102604.78
2019-01-05T02:25:20.163Z,102610.77
2019-01-05T02:28:14.086Z,102612.16
2019-01-05T02:31:08.008Z,102609.72
2019-01-05T02:34:03.591Z,102606.17
2019-01-05T02:37:21.767Z,102606.47
2019-01-05T02:40:00.830Z,102608.66
2019-01-05T02:43:22.498Z,102606.42
2019-01-05T02:46:22.851Z,102593.98
2019-01-05T02:49:39.350Z,102592.63
2019-01-05T02:52:27.628Z,102589.67
2019-01-05T02:55:25.841Z,102592.63
2019-01-05T02:58:04.469Z,102581.48
2019-01-05T03:01:10.944Z,102573.39
2019-01-05T03:04:22.900Z,102571.55
2019-01-05T03:07:21.542Z,102565.80
2019-01-05T03:10:28.113Z,102550.73
2019-01-05T03:13:18.994Z,102555.84
2019-01-05T03:16:17.892Z,102547.80
2019-01-05T03:19:20.844Z,102553.19
2019-01-05T03:22:35.036Z,102543.24
2019-01-05T03:25:33.601Z,102528.31
2019-01-05T03:28:24.719Z,102531.02
2019-01-05T03:31:22.167Z,102531.34
2019-01-05T03:34:04.142Z,102522.44
2019-01-05T03:37:12.948Z,102522.23
2019-01-05T03:40:22.155Z,102514.39
2019-01-05T03:43:04.469Z,102512.78
2019-01-05T03:46:11.999Z,102507.38
2019-01-05T03:49:06.496Z,102511.39
2019-01-05T03:52:12.583Z,102495.41
2019-01-05T03:55:18.828Z,102504.35
2019-01-05T03:58:06.659Z,102496.51
2019-01-05T04:01:11.646Z,102510.89
2019-01-05T04:04:02.255Z,102496.30
2019-01-05T04:06:50.556Z,102492.76
2019-01-05T04:09:29.793Z,102489.22
2019-01-05T04:12:27.086Z,102488.16
2019-01-05T04:15:49.981Z,102477.40
2019-01-05T04:18:52.439Z,102480.56
2019-01-05T04:22:02.776Z,102478.13
2019-01-05T04:25:08.768Z,102474.29
2019-01-05T04:27:53.328Z,102478.70
2019-01-05T04:30:48.591Z,102478.45
2019-01-05T04:33:45.567Z,102476.78
2019-01-05T04:36:48.536Z,102474.12
2019-01-05T04:39:43.835Z,102482.68
2019-01-05T04:42:41.100Z,102483.48
2019-01-05T04:45:34.076Z,102480.78
2019-01-05T04:48:31.877Z,102487.53
2019-01-05T04:51:21.123Z,102480.23
2019-01-05T04:54:12.474Z,102476.44
2019-01-05T04:57:06.888Z,102484.83
2019-01-05T04:59:51.753Z,102476.52
2019-01-05T05:02:37.028Z,102474.58
2019-01-05T05:05:33.968Z,102475.09
2019-01-05T05:08:28.216Z,102473.70
2019-01-05T05:11:19.116Z,102484.53
2019-01-05T05:14:04.098Z,102480.78
2019-01-05T05:17:11.388Z,102476.78
2019-01-05T05:20:10.260Z,102478.42
2019-01-05T05:23:06.172Z,102477.66
2019-01-05T05:26:12.760Z,102470.39
2019-01-05T05:29:12.697Z,102486.59
2019-01-05T05:32:06.493Z,102480.83
2019-01-05T05:34:59.049Z,102485.75
2019-01-05T05:37:46.944Z,102484.44
2019-01-05T05:41:07.389Z,102476.81
2019-01-05T05:43:52.409Z,102482.25
2019-01-05T05:47:07.838Z,102484.95
2019-01-05T05:50:12.588Z,102483.09
2019-01-05T05:53:02.437Z,102483.13
2019-01-05T05:55:56.274Z,102480.13
2019-01-05T05:58:52.209Z,102472.04
2019-01-05T06:01:57.121Z,102490.14
2019-01-05T06:04:30.346Z,102477.77
2019-01-05T06:07:31.894Z,102478.06
2019-01-05T06:10:30.295Z,102478.57
2019-01-05T06:13:40.174Z,102481.86
2019-01-05T06:16:25.026Z,102481.56
2019-01-05T06:19:44.981Z,102478.91
2019-01-05T06:22:49.811Z,102487.27
2019-01-05T06:25:28.899Z,102501.34
2019-01-05T06:28:28.954Z,102491.61
2019-01-05T06:31:26.374Z,102487.63
2019-01-05T06:34:17.712Z,102494.13
2019-01-05T06:37:05.682Z,102491.50
2019-01-05T06:39:41.627Z,102487.13
2019-01-05T06:42:54.313Z,102496.02
2019-01-05T06:46:03.698Z,102493.03
2019-01-05T06:49:05.706Z,102489.02
2019-01-05T06:52:13.640Z,102493.32
2019-01-05T06:55:04.381Z,102489.02
2019-01-05T06:58:10.575Z,102494.13
2019-01-05T07:00:55.540Z,102494.96
2019-01-05T07:03:54.297Z,102491.24
2019-01-05T07:06:53.197Z,102492.92
2019-01-05T07:09:41.330Z,102496.16
2019-01-05T07:12:23.394Z,102504.27
2019-01-05T07:15:13.629Z,102500.47
2019-01-05T07:18:07.853Z,102506.20
2019-01-05T07:21:03.639Z,102509.45
2019-01-05T07:23:54.683Z,102522.08
2019-01-05T07:26:59.639Z,102515.55
2019-01-05T07:30:12.342Z,102520.22
2019-01-05T07:33:03.579Z,102523.98
2019-01-05T07:36:25.232Z,102524.81
2019-01-05T07:39:31.622Z,102525.91
2019-01-05T07:42:25.703Z,102519.89
2019-01-05T07:45:21.676Z,102521.23
2019-01-05T07:48:33.860Z,102520.44
2019-01-05T07:51:43.222Z,102523.35
2019-01-05T07:55:02.010Z,102534.85
2019-01-05T07:57:35.175Z,102533.42
2019-01-05T08:00:35.699Z,102525.80
2019-01-05T08:03:40.568Z,102533.34
2019-01-05T08:06:30.264Z,102539.52
2019-01-05T08:09:47.438Z,102537.88
2019-01-05T08:12:47.049Z,102539.70
2019-01-05T08:15:54.745Z,102536.41
2019-01-05T08:18:53.999Z,102541.84
2019-01-05T08:21:59.390Z,102534.97
2019-01-05T08:24:57.050Z,102537.71
2019-01-05T08:27:45.132Z,102535.98
2019-01-05T08:31:07.383Z,102536.78
2019-01-05T08:33:58.225Z,102533.75
2019-01-05T08:37:06.460Z,102535.52
2019-01-05T08:40:17.476Z,102534.89
2019-01-05T08:43:40.160Z,102545.90
2019-01-05T08:46:46.847Z,102544.25
2019-01-05T08:49:46.999Z,102539.98
2019-01-05T08:52:26.211Z,102541.09
2019-01-05T08:55:14.248Z,102547.25
2019-01-05T08:58:02.346Z,102544.05
2019-01-05T09:01:00.374Z,102534.34
2019-01-05T09:04:10.443Z,102544.38
2019-01-05T09:07:06.727Z,102548.72
2019-01-05T09:10:06.878Z,102555.97
2019-01-05T09:13:22.533Z,102555.68
2019-01-05T09:16:27.550Z,102552.27
2019-01-05T09:19:26.010Z,102559.52
2019-01-05T09:22:17.110Z,102556.57
2019-01-05T09:25:24.894Z,102557.67
2019-01-05T09:28:40.229Z,102570.53
2019-01-05T09:31:45.466Z,102570.45
2019-01-05T09:34:57.530Z,102564.70
2019-01-05T09:37:48.538Z,102559.31
2019-01-05T09:40:42.002Z,102565.81
2019-01-05T09:43:33.151Z,102559.61
2019-01-05T09:46:06.298Z,102565.59
2019-01-05T09:49:00.465Z,102567.70
2019-01-05T09:51:36.747Z,102565.30
2019-01-05T09:54:26.728Z,102572.39
2019-01-05T09:57:21.047Z,102565.30
2019-01-05T10:00:22.605Z,102562.90
2019-01-05T10:03:20.167Z,102570.48
2019-01-05T10:06:11.338Z,102567.49
2019-01-05T10:09:22.383Z,102568.30
2019-01-05T10:12:22.845Z,102565.94
2019-01-05T10:15:27.957Z,102561.51
2019-01-05T10:18:31.203Z,102565.89
2019-01-05T10:21:24.908Z,102566.95
2019-01-05T10:24:15.463Z,102565.64
2019-01-05T10:27:03.423Z,102571.30
2019-01-05T10:29:54.681Z,102566.48
2019-01-05T10:32:42.525Z,102568.09
2019-01-05T10:35:18.443Z,102566.98
2019-01-05T10:38:32.393Z,102559.48
2019-01-05T10:41:17.368Z,102556.48
2019-01-05T10:44:27.887Z,102562.47
2019-01-05T10:47:15.955Z,102557.33
2019-01-05T10:50:08.082Z,102549.30
2019-01-05T10:53:17.616Z,102552.00
2019-01-05T10:56:19.639Z,102542.88
2019-01-05T10:59:16.981Z,102547.84
2019-01-05T11:01:59.063Z,102544.81
2019-01-05T11:04:37.733Z,102542.34
2019-01-05T11:08:04.064Z,102545.73
2019-01-05T11:10:56.947Z,102538.95
2019-01-05T11:13:58.659Z,102536.02
2019-01-05T11:16:57.255Z,102532.19
2019-01-05T11:20:20.418Z,102524.86
2019-01-05T11:23:26.285Z,102525.73
2019-01-05T11:26:14.081Z,102523.29
2019-01-05T11:29:12.767Z,102519.49
2019-01-05T11:32:03.820Z,102520.03
2019-01-05T11:35:22.080Z,102512.78
2019-01-05T11:38:34.731Z,102521.69
2019-01-05T11:41:24.477Z,102528.17
2019-01-05T11:44:27.742Z,102527.85
2019-01-05T11:47:12.591Z,102529.53
2019-01-05T11:50:25.649Z,102535.73
2019-01-05T11:53:25.617Z,102535.52
2019-01-05T11:56:25.640Z,102528.73
2019-01-05T11:59:04.487Z,102527.92
2019-01-05T12:01:58.872Z,102528.11
2019-01-05T12:05:08.452Z,102524.13
2019-01-05T12:07:53.400Z,102522.52
2019-01-05T12:11:07.336Z,102525.95
2019-01-05T12:14:19.652Z,102522.48
2019-01-05T12:17:18.314Z,102520.88
2019-01-05T12:20:00.250Z,102507.34
2019-01-05T12:22:33.445Z,102511.42
2019-01-05T12:25:38.363Z,102508.17
2019-01-05T12:28:47.819Z,102507.13
2019-01-05T12:31:42.208Z,102508.47
2019-01-05T12:34:40.649Z,102508.18
2019-01-05T12:37:25.282Z,102508.77
2019-01-05T12:40:22.805Z,102513.62
2019-01-05T12:43:53.632Z,102514.45
2019-01-05T12:46:50.641Z,102517.96
2019-01-05T12:49:52.730Z,102508.03
2019-01-05T12:52:32.078Z,102517.16
2019-01-05T12:55:43.352Z,102517.23
2019-01-05T12:58:43.625Z,102511.83
2019-01-05T13:01:25.212Z,102519.34
2019-01-05T13:04:24.700Z,102520.45
2019-01-05T13:07:25.879Z,102518.58
2019-01-05T13:10:27.242Z,102519.34
2019-01-05T13:13:28.922Z,102515.00
2019-01-05T13:16:54.519Z,102519.56
2019-01-05T13:19:45.737Z,102513.84
2019-01-05T13:22:45.621Z,102517.16
2019-01-05T13:25:46.707Z,102525.52
2019-01-05T13:28:54.523Z,102521.24
2019-01-05T13:31:51.762Z,102530.19
2019-01-05T13:35:02.529Z,102529.13
2019-01-05T13:38:04.275Z,102537.27
2019-01-05T13:41:04.599Z,102536.21
2019-01-05T13:44:09.208Z,102528.11
2019-01-05T13:47:04.848Z,102533.19
2019-01-05T13:49:54.187Z,102533.47
2019-01-05T13:52:42.355Z,102533.15
2019-01-05T13:55:31.670Z,102545.02
2019-01-05T13:58:18.055Z,102541.98
2019-01-05T14:00:47.955Z,102549.57
2019-01-05T14:03:33.979Z,102545.52
2019-01-05T14:06:18.690Z,102551.69
2019-01-05T14:09:00.355Z,102554.13
2019-01-05T14:11:33.041Z,102557.30
2019-01-05T14:14:08.911Z,102551.39
2019-01-05T14:16:47.768Z,102551.65
2019-01-05T14:19:20.404Z,102556.25
2019-01-05T14:22:06.178Z,102552.23
2019-01-05T14:24:36.085Z,102551.69
2019-01-05T14:27:11.912Z,102551.09
2019-01-05T14:29:41.808Z,102550.27
2019-01-05T14:32:28.103Z,102559.20
2019-01-05T14:35:00.422Z,102555.66
2019-01-05T14:37:46.496Z,102555.15
2019-01-05T14:40:34.867Z,102554.34
2019-01-05T14:43:04.777Z,102561.94
2019-01-05T14:45:43.158Z,102561.86
2019-01-05T14:48:15.801Z,102561.56
2019-01-05T14:50:45.752Z,102565.06
2019-01-05T14:53:31.925Z,102562.92
2019-01-05T14:56:01.967Z,102562.37
2019-01-05T14:58:34.164Z,102569.37
2019-01-05T15:01:06.939Z,102570.94
2019-01-05T15:03:45.476Z,102572.18
2019-01-05T15:06:18.679Z,102572.30
2019-01-05T15:08:48.589Z,102579.92
2019-01-05T15:11:18.518Z,102575.28
2019-01-05T15:13:48.461Z,102566.93
2019-01-05T15:16:34.870Z,102571.78
2019-01-05T15:19:16.747Z,102569.04
2019-01-05T15:22:03.080Z,102569.88
2019-01-05T15:24:35.823Z,102563.50
2019-01-05T15:27:05.716Z,102561.20
2019-01-05T15:29:41.193Z,102567.40
2019-01-05T15:32:13.796Z,102568.79
2019-01-05T15:34:49.773Z,102557.95
2019-01-05T15:37:35.881Z,102561.16
2019-01-05T15:40:08.650Z,102561.78
2019-01-05T15:42:50.568Z,102567.87
2019-01-05T15:45:23.338Z,102560.58
2019-01-05T15:48:02.233Z,102567.65
2019-01-05T15:50:40.875Z,102566.73
2019-01-05T15:53:19.861Z,102571.33
2019-01-05T15:55:58.585Z,102573.48
2019-01-05T15:58:28.512Z,102574.58
2019-01-05T16:01:04.380Z,102575.63
2019-01-05T16:03:34.345Z,102578.67
2019-01-05T16:06:22.553Z,102585.46
2019-01-05T16:09:01.305Z,102590.23
2019-01-05T16:11:40.897Z,102581.59
2019-01-05T16:14:10.833Z,102584.25
2019-01-05T16:16:55.511Z,102588.30
2019-01-05T16:19:31.452Z,102590.70
2019-01-05T16:22:01.408Z,102587.99
2019-01-05T16:24:47.690Z,102590.45
2019-01-05T16:27:23.581Z,102595.05
2019-01-05T16:29:56.509Z,102594.28
2019-01-05T16:32:42.837Z,102596.73
2019-01-05T16:35:29.155Z,102601.16
2019-01-05T16:38:05.008Z,102597.83
2019-01-05T16:40:50.200Z,102591.70
2019-01-05T16:43:20.204Z,102600.27
2019-01-05T16:46:01.959Z,102600.27
2019-01-05T16:48:48.204Z,102598.04
2019-01-05T16:51:34.331Z,102599.44
2019-01-05T16:54:04.286Z,102598.63
2019-01-05T16:56:34.247Z,102599.09
2019-01-05T16:59:06.980Z,102594.75
2019-01-05T17:01:53.362Z,102584.80
2019-01-05T17:04:29.021Z,102594.24
2019-01-05T17:06:59.011Z,102595.09
2019-01-05T17:09:45.474Z,102590.23
2019-01-05T17:12:29.203Z,102592.59
2019-01-05T17:15:08.197Z,102598.84
2019-01-05T17:17:47.103Z,102593.44
2019-01-05T17:20:29.385Z,102596.65
2019-01-05T17:23:08.300Z,102595.63
2019-01-05T17:25:38.234Z,102594.78
2019-01-05T17:28:20.392Z,102593.91
2019-01-05T17:30:56.252Z,102601.79
2019-01-05T17:33:44.358Z,102600.14
2019-01-05T17:36:24.011Z,102595.59
2019-01-05T17:39:10.268Z,102590.70
2019-01-05T17:41:56.364Z,102588.88
2019-01-05T17:44:31.721Z,102589.94
2019-01-05T17:47:17.890Z,102589.64
2019-01-05T17:50:03.866Z,102594.53
2019-01-05T17:52:49.769Z,102587.91
2019-01-05T17:55:36.070Z,102594.28
2019-01-05T17:58:22.162Z,102599.30
2019-01-05T18:00:57.789Z,102609.59
2019-01-05T18:03:36.184Z,102591.16
2019-01-05T18:06:08.844Z,102597.91
2019-01-05T18:08:38.749Z,102600.86
2019-01-05T18:11:08.690Z,102599.81
2019-01-05T18:13:38.659Z,102595.22
2019-01-05T18:16:08.701Z,102601.95
2019-01-05T18:18:47.799Z,102595.51
2019-01-05T18:21:29.934Z,102599.27
2019-01-05T18:23:59.848Z,102604.20
2019-01-05T18:26:35.758Z,102606.64
2019-01-05T18:29:21.814Z,102593.60
2019-01-05T18:31:54.454Z,102603.66
2019-01-05T18:34:27.140Z,102600.44
2019-01-05T18:37:12.205Z,102598.75
2019-01-05T18:39:51.279Z,102602.84
2019-01-05T18:42:37.285Z,102603.05
2019-01-05T18:45:07.951Z,102606.85
2019-01-05T18:47:37.924Z,102603.86
2019-01-05T18:50:20.885Z,102603.31
2019-01-05T18:53:07.499Z,102606.00
2019-01-05T18:55:55.855Z,102609.72
2019-01-05T18:58:37.855Z,102615.00
2019-01-05T19:01:16.639Z,102616.81
2019-01-05T19:04:01.703Z,102617.31
2019-01-05T19:06:31.581Z,102623.21
2019-01-05T19:09:18.174Z,102619.63
2019-01-05T19:12:08.600Z,102625.41
2019-01-05T19:14:38.326Z,102626.25
2019-01-05T19:17:16.958Z,102632.84
2019-01-05T19:20:02.920Z,102623.61
2019-01-05T19:22:32.802Z,102619.77
2019-01-05T19:25:14.941Z,102621.61
2019-01-05T19:27:50.909Z,102618.87
2019-01-05T19:30:21.021Z,102618.02
2019-01-05T19:32:53.799Z,102607.13
2019-01-05T19:35:23.702Z,102615.83
2019-01-05T19:38:02.354Z,102621.19
2019-01-05T19:40:38.254Z,102615.83
2019-01-05T19:43:24.528Z,102619.03
2019-01-05T19:46:00.071Z,102619.53
2019-01-05T19:48:30.405Z,102615.98
2019-01-05T19:51:00.402Z,102613.54
2019-01-05T19:53:36.050Z,102613.29
2019-01-05T19:56:08.642Z,102610.08
2019-01-05T19:58:56.623Z,102611.13
2019-01-05T20:01:42.609Z,102615.09
2019-01-05T20:04:15.568Z,102613.54
2019-01-05T20:06:51.283Z,102618.84
2019-01-05T20:09:24.387Z,102618.08
2019-01-05T20:12:10.469Z,102622.18
2019-01-05T20:14:49.900Z,102618.38
2019-01-05T20:17:36.334Z,102619.73
2019-01-05T20:20:13.293Z,102623.33
2019-01-05T20:22:46.600Z,102624.67
2019-01-05T20:25:23.110Z,102636.66
2019-01-05T20:28:10.187Z,102634.38
2019-01-05T20:30:57.644Z,102637.67
2019-01-05T20:33:28.010Z,102638.17
2019-01-05T20:36:01.473Z,102644.92
2019-01-05T20:38:44.048Z,102638.12
2019-01-05T20:41:30.369Z,102639.77
2019-01-05T20:44:17.040Z,102639.86
2019-01-05T20:46:52.780Z,102639.27
2019-01-05T20:49:34.864Z,102637.63
2019-01-05T20:52:05.094Z,102642.47
2019-01-05T20:54:35.065Z,102638.93
2019-01-05T20:57:05.000Z,102632.43
2019-01-05T20:59:51.215Z,102638.62
2019-01-05T21:02:21.140Z,102636.78
2019-01-05T21:05:07.161Z,102630.52
2019-01-05T21:07:54.587Z,102630.03
2019-01-05T21:10:39.660Z,102626.94
2019-01-05T21:13:25.976Z,102629.98
2019-01-05T21:16:07.931Z,102626.78
2019-01-05T21:18:48.768Z,102625.69
2019-01-05T21:21:18.669Z,102633.02
2019-01-05T21:23:48.587Z,102631.58
2019-01-05T21:26:34.838Z,102634.74
2019-01-05T21:29:20.033Z,102643.28
2019-01-05T21:31:56.053Z,102647.27
2019-01-05T21:34:34.888Z,102646.89
2019-01-05T21:37:21.366Z,102649.88
2019-01-05T21:40:06.350Z,102641.47
2019-01-05T21:42:42.133Z,102648.58
2019-01-05T21:45:12.117Z,102654.72
2019-01-05T21:47:58.390Z,102656.63
2019-01-05T21:50:34.657Z,102656.12
2019-01-05T21:53:04.603Z,102650.47
2019-01-05T21:55:50.566Z,102652.83
2019-01-05T21:58:20.535Z,102646.94
2019-01-05T22:01:06.830Z,102653.37
2019-01-05T22:03:51.823Z,102652.88
2019-01-05T22:06:27.658Z,102649.38
2019-01-05T22:09:14.183Z,102656.87
2019-01-05T22:11:53.038Z,102658.22
2019-01-05T22:14:38.114Z,102654.13
2019-01-05T22:17:10.987Z,102657.37
2019-01-05T22:19:57.140Z,102662.57
2019-01-05T22:22:29.888Z,102659.23
2019-01-05T22:25:18.032Z,102658.17
2019-01-05T22:27:50.666Z,102653.47
2019-01-05T22:30:26.585Z,102658.52
2019-01-05T22:32:56.501Z,102648.23
2019-01-05T22:35:29.204Z,102656.78
2019-01-05T22:38:15.246Z,102652.27
2019-01-05T22:41:01.585Z,102651.38
2019-01-05T22:43:31.497Z,102650.33
2019-01-05T22:46:01.435Z,102653.77
2019-01-05T22:48:31.340Z,102653.78
2019-01-05T22:51:01.372Z,102648.39
2019-01-05T22:53:33.940Z,102644.08
2019-01-05T22:56:13.114Z,102657.62
2019-01-05T22:58:45.729Z,102650.58
2019-01-05T23:01:32.074Z,102653.27
2019-01-05T23:04:18.365Z,102648.98
2019-01-05T23:06:51.247Z,102652.02
2019-01-05T23:09:27.216Z,102647.34
2019-01-05T23:12:06.438Z,102653.57
2019-01-05T23:14:54.342Z,102651.92
2019-01-05T23:17:30.361Z,102646.63
2019-01-05T23:20:00.268Z,102649.78
2019-01-05T23:22:35.673Z,102647.34
2019-01-05T23:25:05.659Z,102653.77
2019-01-05T23:27:38.356Z,102658.38
2019-01-05T23:30:10.935Z,102649.84
2019-01-05T23:32:50.067Z,102653.32
2019-01-05T23:35:36.160Z,102652.22
2019-01-05T23:38:22.284Z,102660.63
2019-01-05T23:41:10.590Z,102657.83
2019-01-05T23:43:56.596Z,102658.08
2019-01-05T23:46:42.891Z,102655.14
2019-01-05T23:49:27.481Z,102664.31
2019-01-05T23:51:59.878Z,102662.38
2019-01-05T23:54:45.718Z,102658.33
2019-01-05T23:57:32.082Z,102663.23
